San Jose Del Cabo, BCS, Mexico
Current Conditions -  °F | °C
As of 9:45 AM on Saturday 22 Nov 2014 (Local Time) from MMSD Reporting Station
Few Clouds Few Clouds  
Wind Chill: 77°   Ceiling: Unl
Heat Index: 79°   Visibility: 15mi
Dew Point: 63°   Wind: 6mph
Humidity: 61%   Direction: 350°N
Pressure: 30.01"   Gusts: NA
Location:  23.07°N, 109.68°W
Report Text: MMSD 221645Z 35005KT 15SM FEW040 25/17 A3001 RMK 8/500 CI
Loading
Personal Weather Stations






























Interactive Weather Map New forecast layout! Learn more

10-Day Weather Forecast

Advertisements
Track Severe Weather on mobile